Time;durP1;ratioP1;P1;durP2;ratioP2;P2;SDS_P1;SDS_P2;PMS_P1;PMS_P2;Temp;Humidity;BMP_temperature;BMP_pressure;BME280_temperature;BME280_humidity;BME280_pressure;Samples;Min_cycle;Max_cycle;Signal;HPM_P1;HPM_P2
2021/10/13 00:02:01;;;;;;;0.30;0.30;;;8.40;99.90;;;;;;5056403;28;20474;-87
2021/10/13 00:04:29;;;;;;;0.40;0.40;;;8.40;99.90;;;;;;5056224;28;20481;-87
2021/10/13 00:06:56;;;;;;;0.83;0.40;;;8.30;99.90;;;;;;5056390;28;20453;-87
2021/10/13 00:09:23;;;;;;;0.50;0.50;;;8.30;99.90;;;;;;5056306;28;20460;-87
2021/10/13 00:11:50;;;;;;;0.30;0.30;;;8.30;99.90;;;;;;5056457;28;20484;-87
2021/10/13 00:14:16;;;;;;;0.40;0.30;;;8.30;99.90;;;;;;5056755;28;20814;-87
2021/10/13 00:16:51;;;;;;;0.30;0.30;;;8.30;99.90;;;;;;5055921;28;20446;-86
2021/10/13 00:19:18;;;;;;;0.50;0.40;;;8.30;99.90;;;;;;5056134;28;20441;-87
2021/10/13 00:21:46;;;;;;;0.50;0.50;;;8.50;99.90;;;;;;5054573;28;20987;-87
2021/10/13 00:24:13;;;;;;;0.60;0.30;;;8.40;99.90;;;;;;5055898;28;20438;-87
2021/10/13 00:26:40;;;;;;;0.40;0.30;;;8.40;99.90;;;;;;5055956;28;20959;-87
2021/10/13 00:29:07;;;;;;;0.30;0.30;;;8.30;99.90;;;;;;5056034;28;20450;-87
2021/10/13 00:31:33;;;;;;;0.50;0.50;;;8.30;99.90;;;;;;5055940;28;20991;-87
2021/10/13 00:34:00;;;;;;;2.07;0.60;;;8.20;99.90;;;;;;5056044;28;20446;-87
2021/10/13 00:36:27;;;;;;;0.30;0.30;;;8.20;99.90;;;;;;5055770;28;20430;-87
2021/10/13 00:38:55;;;;;;;0.30;0.30;;;8.20;99.90;;;;;;5055665;28;20434;-87
2021/10/13 00:41:22;;;;;;;0.40;0.40;;;8.20;99.90;;;;;;5055761;28;20470;-87
2021/10/13 00:43:49;;;;;;;0.40;0.30;;;8.10;99.90;;;;;;5055735;28;20457;-87
2021/10/13 00:46:15;;;;;;;0.43;0.43;;;8.10;99.90;;;;;;5055757;28;20489;-87
2021/10/13 00:48:42;;;;;;;0.50;0.50;;;8.20;99.90;;;;;;5055541;28;20446;-87
2021/10/13 00:51:09;;;;;;;0.40;0.30;;;8.20;99.90;;;;;;5055446;28;20460;-87
2021/10/13 00:53:36;;;;;;;0.50;0.47;;;8.20;99.90;;;;;;5055590;28;20434;-87
2021/10/13 00:56:05;;;;;;;0.30;0.30;;;8.10;99.90;;;;;;5055328;28;20442;-88
2021/10/13 00:58:31;;;;;;;1.43;0.77;;;8.10;99.90;;;;;;5055673;28;20449;-87
2021/10/13 01:01:01;;;;;;;0.33;0.27;;;8.10;99.90;;;;;;5055671;28;20478;-88
2021/10/13 01:03:34;;;;;;;0.60;0.60;;;8.20;99.90;;;;;;5058715;28;20442;-86
2021/10/13 01:06:12;;;;;;;0.40;0.37;;;8.10;99.90;;;;;;5055987;28;20470;-87
2021/10/13 01:08:47;;;;;;;3.13;0.97;;;8.10;99.90;;;;;;5055736;28;20437;-88
2021/10/13 01:11:35;;;;;;;0.83;0.83;;;8.10;99.90;;;;;;5055478;28;20480;-87
2021/10/13 01:14:15;;;;;;;0.30;0.30;;;8.10;99.90;;;;;;5054347;28;20454;-89
2021/10/13 01:16:50;;;;;;;0.40;0.40;;;8.00;99.90;;;;;;5056101;28;20445;-90
2021/10/13 01:19:28;;;;;;;1.37;0.40;;;8.00;99.90;;;;;;5055419;28;20414;-90
2021/10/13 01:22:16;;;;;;;0.30;0.30;;;8.00;99.90;;;;;;5055394;28;20473;-89
2021/10/13 01:24:54;;;;;;;0.90;0.90;;;8.00;99.90;;;;;;5055112;28;20485;-89
2021/10/13 01:27:45;;;;;;;0.40;0.40;;;7.90;99.90;;;;;;5055089;28;20415;-88
2021/10/13 01:30:13;;;;;;;0.30;0.20;;;7.90;99.90;;;;;;5055308;28;20411;-89
2021/10/13 01:32:41;;;;;;;0.33;0.30;;;7.90;99.90;;;;;;5054605;28;20481;-89
2021/10/13 01:35:09;;;;;;;0.43;0.40;;;7.90;99.90;;;;;;5054878;28;20434;-89
2021/10/13 01:37:41;;;;;;;0.60;0.30;;;7.90;99.90;;;;;;5054867;28;20456;-89
2021/10/13 01:40:10;;;;;;;0.30;0.30;;;7.90;99.90;;;;;;5054868;28;20434;-89
2021/10/13 01:42:42;;;;;;;0.50;0.50;;;7.80;99.90;;;;;;5054515;28;20465;-88
2021/10/13 01:45:10;;;;;;;0.40;0.40;;;7.80;99.90;;;;;;5054282;28;20460;-88
2021/10/13 01:47:40;;;;;;;0.50;0.30;;;7.80;99.90;;;;;;5054536;28;20441;-89
2021/10/13 01:50:08;;;;;;;0.97;0.30;;;7.80;99.90;;;;;;5054712;28;20449;-89
2021/10/13 01:52:37;;;;;;;0.50;0.50;;;7.70;99.90;;;;;;5054566;28;20485;-89
2021/10/13 01:55:05;;;;;;;0.40;0.30;;;7.70;99.90;;;;;;5054602;28;20453;-89
2021/10/13 01:57:33;;;;;;;0.70;0.70;;;7.80;99.90;;;;;;5054972;28;20450;-91
2021/10/13 02:00:05;;;;;;;0.40;0.40;;;7.70;99.90;;;;;;5054571;28;20453;-91
2021/10/13 02:02:33;;;;;;;0.77;0.30;;;7.70;99.90;;;;;;5054843;28;20474;-91
2021/10/13 02:05:02;;;;;;;1.00;0.37;;;7.70;99.90;;;;;;5055454;28;20477;-90
2021/10/13 02:07:30;;;;;;;0.40;0.30;;;7.70;99.90;;;;;;5055036;28;20457;-91
2021/10/13 02:10:00;;;;;;;0.40;0.40;;;7.70;99.90;;;;;;5054669;28;20449;-90
2021/10/13 02:12:30;;;;;;;0.40;0.40;;;7.70;99.90;;;;;;5054356;28;20461;-91
2021/10/13 02:14:57;;;;;;;0.30;0.30;;;7.70;99.90;;;;;;5054487;28;20453;-91
2021/10/13 02:17:26;;;;;;;0.70;0.67;;;7.70;99.90;;;;;;5054916;28;20457;-91
2021/10/13 02:19:54;;;;;;;0.30;0.30;;;7.70;99.90;;;;;;5054406;28;20442;-92
2021/10/13 02:22:22;;;;;;;0.40;0.40;;;7.70;99.90;;;;;;5054080;28;20485;-91
2021/10/13 02:24:51;;;;;;;0.50;0.50;;;7.70;99.90;;;;;;5054351;28;20434;-91
2021/10/13 02:27:22;;;;;;;0.30;0.30;;;7.70;99.90;;;;;;5054924;28;20952;-91
2021/10/13 02:29:49;;;;;;;0.50;0.50;;;7.70;99.90;;;;;;5055271;28;20890;-91
2021/10/13 02:32:16;;;;;;;0.53;0.53;;;7.70;99.90;;;;;;5054384;28;20488;-91
2021/10/13 02:34:45;;;;;;;0.30;0.20;;;7.60;99.90;;;;;;5054287;28;20430;-91
2021/10/13 02:37:12;;;;;;;0.40;0.40;;;7.60;99.90;;;;;;5054765;28;20461;-91
2021/10/13 02:39:39;;;;;;;0.30;0.30;;;7.60;99.90;;;;;;5054073;28;20430;-90
2021/10/13 02:42:07;;;;;;;0.40;0.40;;;7.60;99.90;;;;;;5053956;28;20458;-92
2021/10/13 02:44:34;;;;;;;0.90;0.90;;;7.60;99.90;;;;;;5053525;28;20450;-91
2021/10/13 02:47:07;;;;;;;0.70;0.50;;;7.60;99.90;;;;;;5053621;28;20481;-88
2021/10/13 02:49:43;;;;;;;1.03;0.73;;;7.60;99.90;;;;;;5053790;28;20426;-89
2021/10/13 02:52:22;;;;;;;0.30;0.30;;;7.60;99.90;;;;;;5053512;28;20473;-90
2021/10/13 02:54:56;;;;;;;0.67;0.60;;;7.50;99.90;;;;;;5053907;28;20437;-89
2021/10/13 02:57:27;;;;;;;0.87;0.40;;;7.50;99.90;;;;;;5053765;28;20431;-89
2021/10/13 02:59:54;;;;;;;0.33;0.30;;;7.40;99.90;;;;;;5053613;28;20913;-89
2021/10/13 03:02:25;;;;;;;0.33;0.30;;;7.40;99.90;;;;;;5053664;28;20470;-90
2021/10/13 03:04:57;;;;;;;0.40;0.40;;;7.40;99.90;;;;;;5054442;28;20917;-89
2021/10/13 03:07:29;;;;;;;0.40;0.30;;;7.40;99.90;;;;;;5053576;28;20446;-89
2021/10/13 03:09:59;;;;;;;0.40;0.30;;;7.40;99.90;;;;;;5053716;28;20437;-89
2021/10/13 03:12:30;;;;;;;0.97;0.97;;;7.50;99.90;;;;;;5053329;28;20998;-89
2021/10/13 03:14:58;;;;;;;0.30;0.30;;;7.50;99.90;;;;;;5053620;28;20418;-89
2021/10/13 03:17:26;;;;;;;0.80;0.60;;;7.40;99.90;;;;;;5055126;28;20945;-89
2021/10/13 03:19:55;;;;;;;0.83;0.57;;;7.40;99.90;;;;;;5053831;28;20444;-89
2021/10/13 03:22:25;;;;;;;0.67;0.30;;;7.40;99.90;;;;;;5053178;28;20474;-89
2021/10/13 03:24:52;;;;;;;0.50;0.50;;;7.40;99.90;;;;;;5053900;28;20456;-91
2021/10/13 03:27:19;;;;;;;0.30;0.30;;;7.40;99.90;;;;;;5053893;28;20484;-90
2021/10/13 03:29:46;;;;;;;0.60;0.60;;;7.40;99.90;;;;;;5053807;28;20441;-91
2021/10/13 03:32:17;;;;;;;1.27;0.30;;;7.40;99.90;;;;;;5053860;28;20481;-90
2021/10/13 03:34:44;;;;;;;0.40;0.40;;;7.40;99.90;;;;;;5053604;28;20415;-89
2021/10/13 03:37:14;;;;;;;0.30;0.30;;;7.40;99.90;;;;;;5053164;28;20460;-88
2021/10/13 03:39:43;;;;;;;0.30;0.30;;;7.50;99.90;;;;;;5053396;28;20532;-88
2021/10/13 03:42:11;;;;;;;0.40;0.40;;;7.50;99.90;;;;;;5052781;28;21019;-88
2021/10/13 03:44:38;;;;;;;0.30;0.30;;;7.50;99.90;;;;;;5053266;28;20484;-88
2021/10/13 03:47:05;;;;;;;1.73;0.40;;;7.60;99.90;;;;;;5053208;28;20482;-88
2021/10/13 03:49:32;;;;;;;0.30;0.20;;;7.50;99.90;;;;;;5053269;28;20533;-88
2021/10/13 03:51:59;;;;;;;0.40;0.40;;;7.50;99.90;;;;;;5053033;28;20849;-88
2021/10/13 03:54:26;;;;;;;0.30;0.30;;;7.60;99.90;;;;;;5053634;28;20461;-89
2021/10/13 03:56:54;;;;;;;0.40;0.40;;;7.60;99.90;;;;;;5056765;28;20805;-88
2021/10/13 03:59:21;;;;;;;0.97;0.40;;;7.60;99.90;;;;;;5056983;28;20817;-90
2021/10/13 04:01:48;;;;;;;0.30;0.30;;;7.60;99.90;;;;;;5057482;28;20484;-87
2021/10/13 04:04:15;;;;;;;0.60;0.60;;;7.60;99.90;;;;;;5056848;28;20438;-89
2021/10/13 04:06:42;;;;;;;1.27;0.50;;;7.60;99.90;;;;;;5056671;28;20485;-89
2021/10/13 04:09:08;;;;;;;0.30;0.20;;;7.60;99.90;;;;;;5056700;28;20442;-89
2021/10/13 04:11:35;;;;;;;0.30;0.30;;;7.60;99.90;;;;;;5056615;28;20473;-89
2021/10/13 04:14:04;;;;;;;0.30;0.23;;;7.50;99.90;;;;;;5056552;28;20464;-90
2021/10/13 04:16:30;;;;;;;1.23;0.53;;;7.50;99.90;;;;;;5056476;28;20456;-89
2021/10/13 04:18:57;;;;;;;0.30;0.30;;;7.60;99.90;;;;;;5056546;28;20441;-89
2021/10/13 04:21:24;;;;;;;0.57;0.57;;;7.50;99.90;;;;;;5056023;28;20457;-89
2021/10/13 04:23:51;;;;;;;0.30;0.30;;;7.60;99.90;;;;;;5056150;28;20485;-88
2021/10/13 04:26:17;;;;;;;0.30;0.30;;;7.60;99.90;;;;;;5056280;28;20485;-90
2021/10/13 04:28:44;;;;;;;0.60;0.60;;;7.60;99.90;;;;;;5056902;28;20472;-90
2021/10/13 04:31:15;;;;;;;0.40;0.30;;;7.60;99.90;;;;;;5056602;28;20476;-90
2021/10/13 04:33:41;;;;;;;1.03;1.03;;;7.60;99.90;;;;;;5057112;28;20474;-90
2021/10/13 04:36:08;;;;;;;2.80;0.40;;;7.60;99.90;;;;;;5056666;28;20457;-91
2021/10/13 04:38:35;;;;;;;0.30;0.20;;;7.60;99.90;;;;;;5057368;28;20450;-89
2021/10/13 04:41:02;;;;;;;0.50;0.50;;;7.50;99.90;;;;;;5056373;28;20458;-89
2021/10/13 04:43:29;;;;;;;1.83;0.70;;;7.60;99.90;;;;;;5056163;28;20458;-89
2021/10/13 04:45:55;;;;;;;0.30;0.30;;;7.60;99.90;;;;;;5056027;28;20480;-91
2021/10/13 04:48:24;;;;;;;0.30;0.20;;;7.50;99.90;;;;;;5055815;28;20891;-91
2021/10/13 04:50:50;;;;;;;0.30;0.20;;;7.50;99.90;;;;;;5055923;28;20987;-89
2021/10/13 04:53:18;;;;;;;0.30;0.30;;;7.50;99.90;;;;;;5055944;28;21031;-90
2021/10/13 04:55:44;;;;;;;0.40;0.40;;;7.50;99.90;;;;;;5055880;28;20442;-88
2021/10/13 04:58:11;;;;;;;0.30;0.30;;;7.50;99.90;;;;;;5055981;28;20434;-90
2021/10/13 05:00:38;;;;;;;0.70;0.70;;;7.50;99.90;;;;;;5056112;28;20945;-89
2021/10/13 05:03:05;;;;;;;0.40;0.37;;;7.40;99.90;;;;;;5055810;28;20917;-88
2021/10/13 05:05:33;;;;;;;4.80;0.50;;;7.50;99.90;;;;;;5055496;28;20462;-90
2021/10/13 05:08:00;;;;;;;0.50;0.50;;;7.40;99.90;;;;;;5055815;28;20438;-88
2021/10/13 05:10:27;;;;;;;1.13;1.13;;;7.40;99.90;;;;;;5055525;28;20444;-88
2021/10/13 05:12:53;;;;;;;1.30;0.77;;;7.40;99.90;;;;;;5055813;28;20461;-89
2021/10/13 05:15:20;;;;;;;0.60;0.60;;;7.50;99.90;;;;;;5055550;28;21044;-89
2021/10/13 05:17:47;;;;;;;0.80;0.60;;;7.50;99.90;;;;;;5055438;28;20438;-89
2021/10/13 05:20:14;;;;;;;2.77;0.50;;;7.50;99.90;;;;;;5055432;28;20442;-88
2021/10/13 05:22:43;;;;;;;0.40;0.40;;;7.50;99.90;;;;;;5056139;28;20490;-90
2021/10/13 05:25:10;;;;;;;0.30;0.30;;;7.40;99.90;;;;;;5055681;28;20450;-89
2021/10/13 07:47:18;;;;;;;0.30;0.30;;;7.90;99.90;;;;;;984766;23;20764;-87
2021/10/13 07:49:45;;;;;;;1.33;1.00;;;8.00;99.90;;;;;;4996329;28;20476;-89
2021/10/13 07:52:11;;;;;;;3.60;0.60;;;8.00;99.90;;;;;;4997595;28;20468;-90
2021/10/13 07:54:38;;;;;;;0.80;0.30;;;8.00;99.90;;;;;;4997696;28;20467;-89
2021/10/13 07:57:05;;;;;;;2.00;0.60;;;8.00;99.90;;;;;;4997608;28;20416;-89
2021/10/13 07:59:32;;;;;;;0.57;0.57;;;8.10;99.90;;;;;;4997883;28;20432;-90
2021/10/13 08:01:59;;;;;;;0.83;0.83;;;8.20;99.90;;;;;;4997270;28;20453;-89
2021/10/13 08:04:27;;;;;;;0.30;0.30;;;8.30;99.90;;;;;;4997092;28;20413;-90
2021/10/13 08:06:54;;;;;;;0.30;0.30;;;8.30;99.90;;;;;;4997411;28;20832;-90
2021/10/13 08:09:21;;;;;;;0.50;0.50;;;8.40;99.90;;;;;;4997712;28;20536;-89
2021/10/13 08:11:48;;;;;;;0.40;0.40;;;8.50;99.90;;;;;;4997198;28;20844;-89
2021/10/13 08:14:14;;;;;;;0.40;0.40;;;8.60;99.90;;;;;;4996890;28;20597;-89
2021/10/13 08:16:41;;;;;;;0.80;0.50;;;8.80;99.90;;;;;;4996878;28;20944;-89
2021/10/13 08:19:08;;;;;;;0.40;0.40;;;9.00;99.90;;;;;;4996727;28;20475;-87
2021/10/13 08:21:36;;;;;;;2.50;0.40;;;9.10;99.90;;;;;;4996911;28;20469;-89
2021/10/13 08:24:04;;;;;;;0.77;0.77;;;9.10;99.90;;;;;;4996694;28;20805;-89
2021/10/13 08:26:31;;;;;;;0.60;0.60;;;9.20;99.90;;;;;;4996761;28;20484;-87
2021/10/13 08:29:01;;;;;;;0.50;0.47;;;9.30;99.90;;;;;;4997193;28;20467;-86
2021/10/13 08:31:28;;;;;;;1.53;1.27;;;9.40;99.90;;;;;;4996380;28;20809;-88
2021/10/13 08:33:55;;;;;;;1.57;1.47;;;9.50;99.90;;;;;;4996774;28;20503;-89
2021/10/13 08:36:24;;;;;;;1.93;0.73;;;9.50;99.90;;;;;;4996358;28;20967;-89
2021/10/13 08:39:20;;;;;;;0.50;0.50;;;9.60;99.90;;;;;;4996511;28;20448;-88
2021/10/13 08:41:47;;;;;;;0.30;0.30;;;9.70;99.90;;;;;;4995485;28;20469;-86
2021/10/13 08:47:39;;;;;;;0.80;0.70;;;10.00;99.90;;;;;;4987093;28;20512;-88
2021/10/13 08:50:28;;;;;;;0.50;0.47;;;10.30;99.90;;;;;;5015460;28;20922;-85
2021/10/13 08:59:41;;;;;;;1.13;0.73;;;12.40;99.90;;;;;;4839100;29;20508;-83
2021/10/13 09:02:08;;;;;;;3.83;0.67;;;13.80;99.90;;;;;;4960690;28;20533;-86
2021/10/13 09:04:35;;;;;;;1.10;0.50;;;14.70;99.90;;;;;;5015441;28;20455;-85
2021/10/13 09:07:03;;;;;;;0.97;0.57;;;15.20;99.90;;;;;;5016931;28;20495;-85
2021/10/13 09:09:30;;;;;;;0.50;0.50;;;15.60;99.90;;;;;;5014998;28;20463;-84
2021/10/13 09:11:58;;;;;;;2.30;0.60;;;16.00;99.90;;;;;;5015123;28;20475;-83
2021/10/13 09:14:26;;;;;;;2.07;0.60;;;16.20;99.90;;;;;;5015184;28;20497;-83
2021/10/13 09:16:58;;;;;;;1.90;0.83;;;16.20;99.90;;;;;;5014899;28;20455;-83
2021/10/13 09:19:26;;;;;;;1.00;0.70;;;16.30;99.90;;;;;;5015186;28;20436;-83
2021/10/13 09:21:55;;;;;;;4.33;0.60;;;16.40;99.90;;;;;;5014912;28;20467;-85
2021/10/13 09:24:24;;;;;;;1.17;0.60;;;16.00;99.90;;;;;;5015079;28;20435;-86
2021/10/13 09:26:51;;;;;;;0.60;0.60;;;15.30;99.90;;;;;;5015001;28;20491;-84
2021/10/13 09:29:18;;;;;;;0.60;0.50;;;14.50;99.90;;;;;;5014671;28;20436;-84
2021/10/13 09:31:53;;;;;;;0.60;0.40;;;13.80;99.90;;;;;;5014793;28;20478;-84
2021/10/13 09:34:22;;;;;;;0.63;0.50;;;13.20;99.90;;;;;;5014952;28;20443;-85
2021/10/13 09:36:58;;;;;;;0.70;0.40;;;12.70;99.90;;;;;;5015503;28;20451;-85
2021/10/13 09:39:25;;;;;;;1.20;0.83;;;12.30;99.90;;;;;;5014986;28;20443;-85
2021/10/13 09:42:04;;;;;;;0.97;0.53;;;12.00;99.90;;;;;;5014654;28;20459;-86
2021/10/13 09:44:36;;;;;;;0.93;0.40;;;11.60;99.90;;;;;;5015036;28;20452;-86
2021/10/13 09:47:06;;;;;;;0.40;0.40;;;11.40;99.90;;;;;;5014729;28;20463;-86
2021/10/13 09:49:37;;;;;;;0.50;0.50;;;11.20;99.90;;;;;;5014615;28;20487;-86
2021/10/13 09:52:07;;;;;;;0.40;0.30;;;11.00;99.90;;;;;;5014368;28;20456;-85
2021/10/13 09:54:35;;;;;;;1.40;0.70;;;10.90;99.90;;;;;;5014920;28;20531;-86
2021/10/13 09:57:15;;;;;;;1.27;0.97;;;10.80;99.90;;;;;;5014776;28;20444;-86
2021/10/13 09:59:59;;;;;;;0.40;0.30;;;10.70;99.90;;;;;;5014729;28;20422;-86
2021/10/13 10:02:30;;;;;;;0.30;0.30;;;10.90;99.90;;;;;;5014563;28;20482;-85
2021/10/13 10:05:01;;;;;;;1.33;0.40;;;11.90;99.90;;;;;;5014384;28;20447;-86
2021/10/13 10:07:29;;;;;;;0.37;0.30;;;13.30;99.90;;;;;;5014298;28;20468;-85
2021/10/13 10:10:15;;;;;;;0.40;0.30;;;14.60;99.90;;;;;;5014251;28;20531;-83
2021/10/13 10:12:59;;;;;;;0.40;0.40;;;15.90;99.90;;;;;;5014070;28;20479;-83
2021/10/13 10:15:37;;;;;;;0.30;0.30;;;16.60;99.90;;;;;;5013793;28;20443;-79
2021/10/13 10:18:31;;;;;;;0.40;0.30;;;16.30;99.90;;;;;;5013849;28;20419;-79
2021/10/13 10:21:17;;;;;;;0.40;0.30;;;16.30;99.90;;;;;;5013920;28;20562;-79
2021/10/13 10:23:44;;;;;;;0.40;0.30;;;16.90;99.90;;;;;;5014082;28;20522;-79
2021/10/13 10:26:33;;;;;;;0.73;0.60;;;17.60;99.90;;;;;;5013994;28;20440;-79
2021/10/13 10:29:02;;;;;;;0.33;0.30;;;18.20;99.90;;;;;;5013521;28;20888;-79
2021/10/13 10:31:41;;;;;;;0.50;0.30;;;18.30;96.60;;;;;;5013826;28;20468;-79
2021/10/13 10:34:19;;;;;;;0.40;0.30;;;18.50;94.10;;;;;;5013416;28;20963;-79
2021/10/13 10:37:14;;;;;;;0.30;0.30;;;18.70;94.10;;;;;;5013490;28;20446;-79
2021/10/13 10:40:04;;;;;;;0.43;0.43;;;18.60;94.30;;;;;;5013785;28;20490;-79
2021/10/13 10:43:01;;;;;;;0.30;0.30;;;17.70;93.50;;;;;;5013654;28;20471;-79
2021/10/13 10:45:35;;;;;;;0.30;0.27;;;16.50;94.60;;;;;;5001433;28;20454;-79
2021/10/13 10:48:16;;;;;;;0.50;0.30;;;15.60;95.20;;;;;;5013653;28;20499;-79
2021/10/13 10:50:55;;;;;;;0.80;0.30;;;14.90;95.80;;;;;;5013665;28;20478;-79
2021/10/13 10:53:28;;;;;;;0.30;0.30;;;14.40;98.30;;;;;;5013674;28;20522;-80
2021/10/13 10:55:58;;;;;;;0.40;0.30;;;14.10;99.70;;;;;;5013643;28;20440;-80
2021/10/13 10:58:28;;;;;;;0.40;0.40;;;14.00;99.40;;;;;;5013624;28;20432;-80
2021/10/13 11:01:04;;;;;;;0.30;0.30;;;13.90;99.70;;;;;;5013202;28;20474;-80
2021/10/13 11:03:36;;;;;;;0.40;0.30;;;13.70;99.90;;;;;;5013805;28;20427;-81
2021/10/13 11:06:14;;;;;;;0.40;0.40;;;13.40;99.90;;;;;;5016566;28;20795;-80
2021/10/13 11:09:02;;;;;;;0.30;0.30;;;13.10;99.90;;;;;;5017482;28;20471;-81
2021/10/13 11:11:32;;;;;;;0.93;0.70;;;12.80;99.90;;;;;;5017327;28;20476;-80
2021/10/13 11:14:02;;;;;;;0.57;0.40;;;12.70;99.90;;;;;;5017433;28;20445;-83
2021/10/13 11:16:29;;;;;;;0.30;0.23;;;12.80;99.90;;;;;;5017198;28;20417;-81
2021/10/13 11:19:16;;;;;;;0.30;0.30;;;12.90;99.90;;;;;;5017395;28;20446;-82
2021/10/13 11:21:44;;;;;;;0.30;0.30;;;13.00;99.90;;;;;;5017292;28;20521;-81
2021/10/13 11:24:16;;;;;;;0.30;0.30;;;12.90;99.90;;;;;;5017257;28;20531;-82
2021/10/13 11:26:44;;;;;;;0.40;0.30;;;12.70;99.90;;;;;;5017250;28;20420;-82
2021/10/13 11:29:19;;;;;;;0.30;0.30;;;12.40;99.90;;;;;;5017179;28;20467;-82
2021/10/13 11:31:46;;;;;;;0.30;0.30;;;12.20;99.90;;;;;;5017076;28;20542;-82
2021/10/13 11:34:16;;;;;;;0.50;0.30;;;12.10;99.90;;;;;;5017164;28;20442;-82
2021/10/13 11:36:55;;;;;;;0.30;0.20;;;11.90;99.90;;;;;;5017128;28;20447;-82
2021/10/13 11:39:26;;;;;;;0.50;0.30;;;11.70;99.90;;;;;;5017068;28;20427;-81
2021/10/13 11:41:55;;;;;;;0.30;0.30;;;11.60;99.90;;;;;;5016987;28;20478;-82
2021/10/13 11:44:24;;;;;;;0.30;0.20;;;11.60;99.90;;;;;;5016892;28;20455;-82
2021/10/13 11:47:09;;;;;;;0.30;0.30;;;11.50;99.90;;;;;;5016741;28;20867;-82
2021/10/13 11:49:54;;;;;;;0.40;0.30;;;11.40;99.90;;;;;;5016465;28;20471;-84
2021/10/13 11:52:21;;;;;;;0.30;0.30;;;11.50;99.90;;;;;;5016701;28;20459;-81
2021/10/13 11:54:58;;;;;;;0.30;0.30;;;11.50;99.90;;;;;;5016746;28;20447;-82
2021/10/13 11:57:25;;;;;;;0.50;0.30;;;11.60;99.90;;;;;;5016425;28;20435;-81
2021/10/13 12:00:10;;;;;;;0.30;0.20;;;11.70;99.90;;;;;;5016325;28;20789;-81
2021/10/13 12:02:37;;;;;;;0.50;0.30;;;11.90;99.90;;;;;;5016254;28;20471;-81
2021/10/13 12:05:07;;;;;;;0.30;0.30;;;12.00;99.90;;;;;;5016585;28;20448;-82
2021/10/13 12:07:41;;;;;;;0.33;0.27;;;12.10;99.90;;;;;;5016201;28;20482;-81
2021/10/13 12:10:10;;;;;;;0.30;0.30;;;12.10;99.90;;;;;;5016233;28;20526;-81
2021/10/13 12:12:37;;;;;;;0.33;0.30;;;12.20;99.90;;;;;;5016348;28;20475;-81
2021/10/13 12:15:17;;;;;;;0.30;0.20;;;12.30;99.90;;;;;;5016365;28;20459;-81
2021/10/13 12:17:44;;;;;;;0.30;0.20;;;12.20;99.90;;;;;;5016455;28;20888;-81
2021/10/13 12:20:17;;;;;;;0.30;0.20;;;12.10;99.90;;;;;;5016053;28;20448;-81
2021/10/13 12:22:47;;;;;;;0.30;0.30;;;12.00;99.90;;;;;;5016211;28;20478;-82
2021/10/13 12:25:29;;;;;;;0.30;0.30;;;11.90;99.90;;;;;;5016029;28;20416;-82
2021/10/13 12:27:56;;;;;;;0.30;0.30;;;11.70;99.90;;;;;;5016122;28;20471;-82
2021/10/13 12:30:30;;;;;;;0.30;0.20;;;11.60;99.90;;;;;;5015789;28;20998;-81
2021/10/13 12:33:05;;;;;;;0.30;0.20;;;11.40;99.90;;;;;;5016084;28;20462;-82
2021/10/13 12:35:33;;;;;;;0.30;0.20;;;11.20;99.90;;;;;;5015799;28;20443;-82
2021/10/13 12:37:59;;;;;;;0.30;0.30;;;11.20;99.90;;;;;;5015872;28;20455;-82
2021/10/13 12:40:28;;;;;;;0.30;0.30;;;11.20;99.90;;;;;;5015541;28;20452;-81
2021/10/13 12:42:55;;;;;;;0.30;0.27;;;11.20;99.90;;;;;;5015678;28;20782;-81
2021/10/13 12:45:24;;;;;;;0.30;0.20;;;11.20;99.90;;;;;;5015895;28;20486;-82
2021/10/13 12:47:50;;;;;;;0.30;0.20;;;11.10;99.90;;;;;;5015576;28;20495;-82
2021/10/13 12:50:18;;;;;;;0.40;0.30;;;11.00;99.90;;;;;;5015559;28;20479;-83
2021/10/13 12:52:45;;;;;;;0.30;0.30;;;10.90;99.90;;;;;;5015597;28;20480;-85
2021/10/13 12:55:11;;;;;;;0.47;0.27;;;10.80;99.90;;;;;;5015675;28;20511;-83
2021/10/13 12:57:40;;;;;;;0.40;0.40;;;10.70;99.90;;;;;;5015274;28;20448;-83
2021/10/13 13:00:08;;;;;;;0.60;0.30;;;10.60;99.90;;;;;;5015331;28;20428;-83
2021/10/13 13:02:35;;;;;;;0.30;0.30;;;10.50;99.90;;;;;;5015341;28;20479;-84
2021/10/13 13:05:02;;;;;;;0.30;0.20;;;10.50;99.90;;;;;;5015275;28;20439;-83
2021/10/13 13:07:31;;;;;;;0.30;0.30;;;10.50;99.90;;;;;;5015368;28;20447;-82
2021/10/13 13:09:58;;;;;;;0.33;0.33;;;10.50;99.90;;;;;;5015381;28;20432;-82
2021/10/13 13:12:25;;;;;;;0.30;0.20;;;10.60;99.90;;;;;;5015014;28;20840;-83
2021/10/13 13:14:53;;;;;;;0.30;0.30;;;10.70;99.90;;;;;;5015158;28;20452;-83
2021/10/13 13:17:20;;;;;;;0.30;0.23;;;10.60;99.90;;;;;;5015209;28;20463;-82
2021/10/13 13:19:47;;;;;;;0.30;0.20;;;10.60;99.90;;;;;;5014843;28;20970;-81
2021/10/13 13:22:13;;;;;;;0.30;0.30;;;10.50;99.90;;;;;;5015166;28;20479;-83
2021/10/13 13:24:40;;;;;;;0.77;0.70;;;10.50;99.90;;;;;;5015041;28;20456;-83
2021/10/13 13:27:07;;;;;;;0.40;0.37;;;10.50;99.90;;;;;;5014595;28;20451;-83
2021/10/13 13:29:33;;;;;;;0.30;0.30;;;10.60;99.90;;;;;;5014948;28;20475;-83
2021/10/13 13:32:02;;;;;;;0.30;0.20;;;10.70;99.90;;;;;;5014931;28;20468;-83
2021/10/13 13:34:28;;;;;;;0.60;0.60;;;10.80;99.90;;;;;;5015024;28;20467;-82
2021/10/13 13:36:55;;;;;;;0.40;0.30;;;10.80;99.90;;;;;;5014542;28;20828;-81
2021/10/13 13:39:22;;;;;;;0.30;0.20;;;10.90;99.90;;;;;;5014824;28;20459;-82
2021/10/13 13:41:50;;;;;;;0.30;0.30;;;10.90;99.90;;;;;;5014533;28;20975;-82
2021/10/13 13:44:17;;;;;;;2.27;0.40;;;11.00;99.90;;;;;;5014743;28;20447;-85
2021/10/13 13:46:44;;;;;;;0.30;0.30;;;11.00;99.90;;;;;;5014773;28;20436;-87
2021/10/13 13:49:12;;;;;;;0.50;0.40;;;10.80;99.90;;;;;;5014222;28;20499;-88
2021/10/13 13:51:39;;;;;;;0.43;0.40;;;10.60;99.90;;;;;;5014659;28;20487;-87
2021/10/13 13:54:06;;;;;;;0.30;0.30;;;10.40;99.90;;;;;;5014347;28;20462;-87
2021/10/13 13:56:33;;;;;;;0.30;0.20;;;10.20;99.90;;;;;;5014363;28;20427;-87
2021/10/13 13:59:00;;;;;;;0.50;0.40;;;10.10;99.90;;;;;;5014609;28;20783;-86
2021/10/13 14:01:26;;;;;;;0.30;0.20;;;10.00;99.90;;;;;;5014537;28;20475;-86
2021/10/13 14:03:53;;;;;;;0.30;0.30;;;9.90;99.90;;;;;;5014452;28;20456;-86
2021/10/13 14:06:21;;;;;;;0.40;0.30;;;9.90;99.90;;;;;;5014396;28;20432;-86
2021/10/13 14:08:48;;;;;;;0.40;0.30;;;9.90;99.90;;;;;;5014315;28;20494;-86
2021/10/13 14:11:15;;;;;;;0.40;0.33;;;10.00;99.90;;;;;;5014270;28;20475;-85
2021/10/13 14:13:42;;;;;;;0.37;0.27;;;10.00;99.90;;;;;;5013977;28;20946;-86
2021/10/13 14:16:08;;;;;;;1.60;0.40;;;10.00;99.90;;;;;;5013885;28;20943;-85
2021/10/13 14:18:35;;;;;;;0.40;0.40;;;10.00;99.90;;;;;;5014240;28;20439;-82
2021/10/13 14:21:02;;;;;;;1.63;0.40;;;10.00;99.90;;;;;;5014097;28;20482;-82
2021/10/13 14:23:30;;;;;;;0.80;0.37;;;10.10;99.90;;;;;;5014819;28;20452;-83
2021/10/13 14:25:57;;;;;;;0.50;0.50;;;10.10;99.90;;;;;;5014011;28;20451;-83
2021/10/13 14:28:23;;;;;;;0.30;0.30;;;10.20;99.90;;;;;;5013600;28;20842;-83
2021/10/13 14:30:51;;;;;;;0.47;0.47;;;10.20;99.90;;;;;;5013568;28;20475;-83
2021/10/13 14:33:18;;;;;;;0.30;0.30;;;10.20;99.90;;;;;;5013717;28;20431;-83
2021/10/13 14:35:46;;;;;;;0.77;0.70;;;10.30;99.90;;;;;;5013577;28;20963;-82
2021/10/13 14:38:13;;;;;;;0.30;0.30;;;10.30;99.90;;;;;;5013891;28;20439;-82
2021/10/13 14:40:44;;;;;;;0.70;0.50;;;10.20;99.90;;;;;;5012923;28;20482;-83
2021/10/13 14:43:11;;;;;;;0.80;0.30;;;10.20;99.90;;;;;;5013866;28;20851;-82
2021/10/13 14:45:38;;;;;;;0.30;0.30;;;10.30;99.90;;;;;;5013732;28;20451;-82
2021/10/13 14:48:05;;;;;;;1.17;0.30;;;10.30;99.90;;;;;;5013360;28;20485;-82
2021/10/13 14:50:32;;;;;;;0.50;0.30;;;10.30;99.90;;;;;;5013614;28;20462;-82
2021/10/13 14:52:59;;;;;;;0.30;0.30;;;10.30;99.90;;;;;;5013717;28;20448;-83
2021/10/13 14:55:25;;;;;;;0.47;0.27;;;10.40;99.90;;;;;;5013378;28;20448;-81
2021/10/13 14:57:54;;;;;;;0.30;0.20;;;10.40;99.90;;;;;;5013622;28;20462;-82
2021/10/13 15:00:20;;;;;;;0.30;0.20;;;10.30;99.90;;;;;;5013325;28;20444;-82
2021/10/13 15:02:47;;;;;;;0.30;0.30;;;10.30;99.90;;;;;;5013226;28;20447;-81
2021/10/13 15:05:14;;;;;;;0.40;0.30;;;10.40;99.90;;;;;;5013538;28;20452;-81
2021/10/13 15:07:41;;;;;;;0.40;0.30;;;10.30;99.90;;;;;;5013515;28;20435;-81
2021/10/13 15:10:08;;;;;;;0.40;0.30;;;10.30;99.90;;;;;;5013102;28;21037;-81
2021/10/13 15:12:35;;;;;;;0.30;0.20;;;10.30;99.90;;;;;;5013399;28;20475;-82
2021/10/13 15:15:04;;;;;;;0.87;0.40;;;10.20;99.90;;;;;;5013368;28;20483;-82
2021/10/13 15:17:31;;;;;;;0.30;0.30;;;10.20;99.90;;;;;;5013102;28;20443;-81
2021/10/13 15:19:58;;;;;;;0.47;0.30;;;10.20;99.90;;;;;;5013452;28;20458;-82
2021/10/13 15:22:26;;;;;;;0.50;0.30;;;10.10;99.90;;;;;;5013296;28;20460;-82
2021/10/13 15:24:54;;;;;;;0.37;0.30;;;10.10;99.90;;;;;;5013436;28;20492;-82
2021/10/13 15:27:21;;;;;;;0.40;0.30;;;10.00;99.90;;;;;;5013238;28;20440;-81
2021/10/13 15:29:47;;;;;;;0.40;0.33;;;10.00;99.90;;;;;;5013246;28;20483;-80
2021/10/13 15:32:16;;;;;;;0.60;0.30;;;10.00;99.90;;;;;;5013237;28;20472;-80
2021/10/13 15:34:42;;;;;;;0.43;0.43;;;10.00;99.90;;;;;;5013027;28;20442;-80
2021/10/13 15:37:12;;;;;;;0.60;0.50;;;9.90;99.90;;;;;;5013278;28;20491;-81